Time;durP1;ratioP1;P1;durP2;ratioP2;P2;SDS_P1;SDS_P2;PMS_P1;PMS_P2;Temp;Humidity;BMP_temperature;BMP_pressure;BME280_temperature;BME280_humidity;BME280_pressure;Samples;Min_cycle;Max_cycle;Signal;HPM_P1;HPM_P2
2023/04/17 00:01:34;;;;;;;5.40;3.10;;;;;;;13.21;54.83;99534.69;7738316;32;38857;-79
2023/04/17 00:05:52;;;;;;;3.62;2.50;;;;;;;13.24;54.48;99536.00;7738749;32;36914;-79
2023/04/17 00:10:10;;;;;;;4.10;2.70;;;;;;;13.18;54.69;99526.22;7738464;32;41759;-79
2023/04/17 00:14:26;;;;;;;5.10;2.67;;;;;;;13.15;54.84;99533.94;7724597;32;39817;-79
2023/04/17 00:18:42;;;;;;;5.62;3.00;;;;;;;13.01;55.33;99527.56;7738043;32;37602;-80
2023/04/17 00:22:59;;;;;;;5.68;3.00;;;;;;;12.98;55.50;99536.34;7738300;32;37228;-79
2023/04/17 00:27:15;;;;;;;5.57;3.10;;;;;;;13.11;55.18;99541.09;7738314;32;39334;-78
2023/04/17 00:31:31;;;;;;;4.68;3.00;;;;;;;13.02;55.56;99531.09;7738211;32;39930;-79
2023/04/17 00:35:48;;;;;;;4.18;2.62;;;;;;;13.11;55.07;99524.69;7738020;32;37984;-79
2023/04/17 00:40:05;;;;;;;4.87;2.92;;;;;;;12.90;55.62;99521.44;7724329;32;37934;-79
2023/04/17 00:44:21;;;;;;;3.87;2.78;;;;;;;12.81;55.93;99522.34;7737614;32;40085;-79
2023/04/17 00:48:37;;;;;;;5.82;3.00;;;;;;;12.81;55.88;99519.63;7737757;32;39932;-78
2023/04/17 00:52:54;;;;;;;6.55;3.37;;;;;;;12.81;55.92;99519.63;7737795;32;38710;-79
2023/04/17 00:57:11;;;;;;;7.50;3.03;;;;;;;12.73;56.22;99513.69;7711338;32;37848;-79
2023/04/17 01:01:27;;;;;;;5.60;3.12;;;;;;;12.70;56.57;99525.22;7724087;32;40068;-79
2023/04/17 01:05:47;;;;;;;6.87;3.22;;;;;;;12.83;56.42;99514.66;7737614;32;41003;-79
2023/04/17 01:10:03;;;;;;;5.03;3.08;;;;;;;12.86;56.20;99511.34;7723821;32;38683;-79
2023/04/17 01:14:20;;;;;;;7.15;3.42;;;;;;;12.76;56.39;99502.19;7737343;32;37162;-79
2023/04/17 01:18:36;;;;;;;4.75;3.17;;;;;;;12.64;56.86;99515.47;7737528;32;40102;-79
2023/04/17 01:22:52;;;;;;;5.78;3.12;;;;;;;12.53;57.11;99508.47;7737396;32;40011;-79
2023/04/17 01:27:08;;;;;;;4.25;3.10;;;;;;;12.67;56.57;99495.72;7737349;32;38429;-79
2023/04/17 01:31:29;;;;;;;6.55;3.50;;;;;;;12.27;57.67;99495.09;7737256;32;37127;-79
2023/04/17 01:35:45;;;;;;;5.60;3.00;;;;;;;12.58;56.60;99494.75;7737242;32;39320;-79
2023/04/17 01:40:05;;;;;;;8.02;3.60;;;;;;;12.39;56.76;99497.44;7736665;32;39939;-78
2023/04/17 01:44:21;;;;;;;6.10;3.58;;;;;;;12.24;57.11;99492.94;7737010;32;38685;-79
2023/04/17 01:48:38;;;;;;;6.28;3.80;;;;;;;12.10;57.34;99489.28;7736743;32;37152;-79
2023/04/17 01:52:54;;;;;;;5.87;3.67;;;;;;;12.28;56.74;99496.75;7736772;32;39030;-79
2023/04/17 01:57:10;;;;;;;7.25;4.03;;;;;;;12.15;57.15;99492.75;7736633;32;39637;-79
2023/04/17 02:01:27;;;;;;;7.75;4.28;;;;;;;12.00;57.63;99496.47;7736047;32;37924;-78
2023/04/17 02:05:47;;;;;;;7.12;4.00;;;;;;;11.98;57.82;99497.84;7738111;32;37054;-78
2023/04/17 02:10:03;;;;;;;6.72;3.87;;;;;;;12.00;57.82;99501.94;7740040;32;39490;-79
2023/04/17 02:14:20;;;;;;;5.53;3.80;;;;;;;11.94;58.12;99494.88;7739344;32;40783;-79
2023/04/17 02:18:37;;;;;;;5.68;3.72;;;;;;;11.91;58.48;99511.03;7739513;32;37687;-80
2023/04/17 02:22:54;;;;;;;6.57;4.07;;;;;;;11.95;58.37;99510.19;7739615;32;37835;-79
2023/04/17 02:27:10;;;;;;;6.15;4.00;;;;;;;12.09;57.91;99514.94;7739706;32;39075;-79
2023/04/17 02:31:26;;;;;;;9.48;4.55;;;;;;;11.83;58.36;99512.44;7739601;32;39730;-79
2023/04/17 02:35:43;;;;;;;6.25;3.42;;;;;;;11.77;58.57;99503.47;7739518;32;38634;-79
2023/04/17 02:39:59;;;;;;;6.70;3.95;;;;;;;11.89;57.95;99500.38;7739474;32;37298;-79
2023/04/17 02:44:15;;;;;;;6.60;3.80;;;;;;;11.70;58.35;99492.06;7739304;32;39377;-79
2023/04/17 02:48:31;;;;;;;6.28;3.90;;;;;;;11.73;58.25;99493.41;7739155;32;40847;-79
2023/04/17 02:52:48;;;;;;;7.18;3.75;;;;;;;11.73;57.95;99496.97;7739242;32;38683;-79
2023/04/17 02:57:04;;;;;;;8.57;3.92;;;;;;;11.62;58.48;99498.16;7739323;32;37867;-77
2023/04/17 03:01:21;;;;;;;6.55;3.50;;;;;;;11.64;58.36;99502.22;7738965;32;39019;-78
2023/04/17 03:05:37;;;;;;;5.43;3.42;;;;;;;11.76;59.93;99499.13;7725404;32;40775;-79
2023/04/17 03:09:56;;;;;;;7.32;4.25;;;;;;;11.71;58.68;99498.34;7738888;32;38608;-78
2023/04/17 03:14:12;;;;;;;7.20;4.10;;;;;;;11.55;58.74;99509.38;7739128;32;37092;-79
2023/04/17 03:18:28;;;;;;;7.12;4.00;;;;;;;11.43;59.30;99508.94;7738094;32;39927;-79
2023/04/17 03:22:45;;;;;;;8.25;4.40;;;;;;;11.55;58.87;99517.56;7738885;32;41010;-79
2023/04/17 03:27:01;;;;;;;8.07;4.25;;;;;;;11.37;59.21;99507.38;7738852;32;37853;-79
2023/04/17 03:31:17;;;;;;;6.45;4.03;;;;;;;11.26;59.59;99510.16;7738922;32;37154;-78
2023/04/17 03:35:34;;;;;;;6.75;4.22;;;;;;;11.39;59.00;99507.88;7738828;32;39371;-78
2023/04/17 03:39:50;;;;;;;6.72;3.90;;;;;;;11.23;59.21;99510.72;7738244;32;41181;-79
2023/04/17 03:44:07;;;;;;;9.80;4.55;;;;;;;11.15;59.37;99521.41;7738835;32;37538;-79
2023/04/17 03:48:24;;;;;;;6.28;4.10;;;;;;;11.02;59.81;99525.56;7738500;32;37169;-80
2023/04/17 03:52:40;;;;;;;7.37;4.30;;;;;;;10.98;60.19;99513.59;7738655;32;40644;-79
2023/04/17 03:56:56;;;;;;;7.37;4.20;;;;;;;11.12;59.85;99521.97;7738596;32;39700;-79
2023/04/17 04:01:13;;;;;;;9.27;4.72;;;;;;;11.00;60.28;99522.31;7738535;32;38469;-79
2023/04/17 04:05:29;;;;;;;8.40;4.85;;;;;;;11.20;59.73;99527.66;7738374;32;37016;-78
2023/04/17 04:09:46;;;;;;;10.50;4.75;;;;;;;11.21;59.82;99533.91;7738489;32;39429;-79
2023/04/17 04:14:02;;;;;;;7.68;4.80;;;;;;;11.19;60.16;99528.75;7724648;32;40026;-79
2023/04/17 04:18:18;;;;;;;8.35;4.45;;;;;;;11.12;60.59;99530.16;7738102;32;38601;-79
2023/04/17 04:22:35;;;;;;;7.53;4.90;;;;;;;11.06;60.92;99534.84;7738293;32;37646;-79
2023/04/17 04:26:51;;;;;;;8.35;4.75;;;;;;;11.00;61.36;99534.03;7737959;32;39487;-79
2023/04/17 04:31:08;;;;;;;8.10;4.70;;;;;;;11.17;60.95;99530.94;7738016;32;39933;-79
2023/04/17 04:35:29;;;;;;;8.60;5.10;;;;;;;11.16;61.05;99545.69;7738143;32;38778;-79
2023/04/17 04:39:46;;;;;;;7.93;4.85;;;;;;;11.33;60.83;99548.06;7738010;32;37649;-79
2023/04/17 04:44:03;;;;;;;6.85;4.47;;;;;;;11.33;60.77;99555.41;7738083;32;39422;-79
2023/04/17 04:48:19;;;;;;;7.05;4.30;;;;;;;11.17;61.44;99560.94;7737771;32;40977;-79
2023/04/17 04:52:35;;;;;;;7.72;4.37;;;;;;;11.27;61.18;99552.72;7737825;32;37885;-79
2023/04/17 04:56:52;;;;;;;7.68;4.87;;;;;;;11.29;61.28;99560.63;7737834;32;37871;-78
2023/04/17 05:01:08;;;;;;;8.15;4.82;;;;;;;11.34;61.37;99554.31;7737786;32;40188;-79
2023/04/17 05:05:25;;;;;;;9.82;4.55;;;;;;;11.45;61.51;99558.59;7737426;32;40118;-78
2023/04/17 05:09:41;;;;;;;6.72;4.15;;;;;;;11.54;61.33;99558.81;7737618;32;37874;-79
2023/04/17 05:13:58;;;;;;;6.43;4.20;;;;;;;11.62;61.61;99559.03;7737509;32;37182;-79
2023/04/17 05:18:14;;;;;;;10.63;4.60;;;;;;;11.25;62.14;99568.56;7737694;32;39390;-79
2023/04/17 05:22:30;;;;;;;9.57;4.53;;;;;;;11.49;61.97;99573.31;7737298;32;41185;-80
2023/04/17 05:26:46;;;;;;;8.63;4.53;;;;;;;11.78;61.32;99570.66;7742522;32;38389;-80
2023/04/17 05:31:02;;;;;;;7.72;4.25;;;;;;;11.74;61.01;99571.50;7780247;32;37658;-79
2023/04/17 05:35:19;;;;;;;11.12;4.78;;;;;;;11.95;60.42;99575.75;7754005;32;40093;-80
2023/04/17 05:39:35;;;;;;;15.50;5.40;;;;;;;12.07;58.79;99583.56;7784994;32;39914;-80
2023/04/17 05:43:51;;;;;;;6.82;4.50;;;;;;;12.06;59.13;99587.41;7763552;32;37918;-79
2023/04/17 05:48:08;;;;;;;10.07;4.93;;;;;;;12.01;59.74;99587.44;7759877;32;37135;-80
2023/04/17 05:52:24;;;;;;;16.25;4.80;;;;;;;11.61;59.76;99583.91;7733337;32;39382;-81
2023/04/17 05:56:41;;;;;;;8.35;4.47;;;;;;;11.77;59.29;99585.41;7736418;32;40859;-79
2023/04/17 06:00:57;;;;;;;12.45;5.12;;;;;;;12.13;58.57;99587.06;7746742;32;38809;-81
2023/04/17 06:05:15;;;;;;;9.25;4.78;;;;;;;12.33;58.01;99580.59;7743989;32;37870;-80
2023/04/17 06:09:32;;;;;;;6.55;4.10;;;;;;;12.44;58.06;99575.84;7743527;32;39385;-80
2023/04/17 06:13:48;;;;;;;8.68;4.30;;;;;;;12.91;56.86;99575.00;7762605;32;40991;-81
2023/04/17 06:18:05;;;;;;;9.27;4.80;;;;;;;12.88;55.77;99585.72;7762329;32;37586;-81
2023/04/17 06:22:21;;;;;;;8.35;4.57;;;;;;;13.00;56.42;99583.38;7759985;32;37203;-80
2023/04/17 06:26:37;;;;;;;8.35;4.25;;;;;;;13.32;55.36;99579.19;7758991;32;39268;-81
2023/04/17 06:30:53;;;;;;;6.28;4.30;;;;;;;13.26;55.53;99578.41;7770028;32;39906;-82
2023/04/17 06:35:10;;;;;;;7.32;4.22;;;;;;;13.47;56.52;99584.44;7767499;32;37958;-68
2023/04/17 06:39:26;;;;;;;10.65;6.32;;;;;;;13.43;56.71;99588.06;7744001;32;36776;-81
2023/04/17 06:43:43;;;;;;;9.85;5.87;;;;;;;13.04;56.93;99600.88;7758393;32;39471;-81
2023/04/17 06:47:59;;;;;;;11.00;5.90;;;;;;;13.01;56.88;99606.13;7734228;32;39948;-80
2023/04/17 06:52:19;;;;;;;12.35;6.62;;;;;;;12.73;57.64;99605.91;7736903;32;38645;-79
2023/04/17 06:56:35;;;;;;;11.32;6.30;;;;;;;13.37;56.27;99606.50;7747519;32;37996;-80
2023/04/17 07:00:51;;;;;;;10.77;6.30;;;;;;;13.66;56.24;99614.56;7753121;32;39395;-81
2023/04/17 07:05:08;;;;;;;7.72;5.18;;;;;;;13.00;57.29;99616.22;7753692;32;40850;-80
2023/04/17 07:09:25;;;;;;;7.80;5.18;;;;;;;13.64;55.06;99613.22;7753390;32;38103;-80
2023/04/17 07:13:41;;;;;;;9.20;5.25;;;;;;;13.86;54.53;99605.22;7749115;32;37520;-81
2023/04/17 07:17:57;;;;;;;10.02;6.15;;;;;;;14.29;54.57;99617.94;7737384;32;39947;-82
2023/04/17 07:22:13;;;;;;;8.43;4.87;;;;;;;14.27;54.23;99620.19;7738785;32;39898;-82
2023/04/17 07:26:30;;;;;;;6.50;3.58;;;;;;;14.51;53.61;99617.28;7748438;32;37982;-81
2023/04/17 07:30:47;;;;;;;6.43;3.33;;;;;;;14.69;51.54;99612.87;7765906;32;37818;-80
2023/04/17 07:35:03;;;;;;;6.95;3.17;;;;;;;14.85;51.02;99613.41;7756624;32;40062;-79
2023/04/17 07:39:19;;;;;;;6.30;3.33;;;;;;;14.95;51.34;99618.69;7792906;32;39880;-78
2023/04/17 07:43:36;;;;;;;5.82;3.10;;;;;;;15.12;49.52;99626.28;7764140;32;37745;-79
2023/04/17 07:47:52;;;;;;;6.95;2.97;;;;;;;15.21;48.80;99620.87;7750980;32;37014;-79
2023/04/17 07:52:09;;;;;;;5.57;3.00;;;;;;;15.18;47.20;99622.34;7750948;32;40108;-79
2023/04/17 07:56:27;;;;;;;6.57;3.33;;;;;;;15.49;46.67;99615.38;7765075;32;39911;-79
2023/04/17 08:00:43;;;;;;;5.95;3.00;;;;;;;15.71;47.30;99618.16;7747317;32;38806;-75
2023/04/17 08:05:00;;;;;;;5.03;3.05;;;;;;;15.66;48.57;99620.19;7742038;32;305126;-72
2023/04/17 08:09:16;;;;;;;6.20;2.67;;;;;;;15.89;48.11;99618.34;7763869;32;39009;-73
2023/04/17 08:13:32;;;;;;;5.32;3.00;;;;;;;16.52;45.79;99619.22;7751194;32;39989;-80
2023/04/17 08:17:49;;;;;;;9.52;3.08;;;;;;;16.87;43.43;99609.22;7764679;32;37986;-81
2023/04/17 08:22:06;;;;;;;4.97;3.08;;;;;;;17.59;42.85;99612.63;7752946;32;37015;-79
2023/04/17 08:26:23;;;;;;;5.68;3.03;;;;;;;18.04;40.32;99596.91;7718192;32;40111;-81
2023/04/17 08:30:39;;;;;;;5.62;3.22;;;;;;;18.58;39.53;99600.03;7738476;32;40749;-81
2023/04/17 08:34:57;;;;;;;4.35;2.92;;;;;;;18.63;38.45;99591.56;7750498;32;38169;-77
2023/04/17 08:39:15;;;;;;;7.07;3.28;;;;;;;18.39;39.08;99606.72;7757728;32;37796;-78
2023/04/17 08:43:32;;;;;;;5.87;2.90;;;;;;;18.55;38.95;99597.94;7766608;32;39384;-76
2023/04/17 08:47:48;;;;;;;6.60;3.45;;;;;;;18.92;38.25;99604.63;7723924;32;39689;-78
2023/04/17 08:52:06;;;;;;;6.07;3.20;;;;;;;19.05;38.66;99597.25;7761086;32;38039;-77
2023/04/17 08:56:23;;;;;;;4.75;3.20;;;;;;;19.00;38.68;99602.97;7747368;32;36841;-78
2023/04/17 09:00:40;;;;;;;5.72;3.22;;;;;;;19.28;37.89;99599.72;7739038;32;40188;-80
2023/04/17 09:04:57;;;;;;;6.15;3.42;;;;;;;19.56;38.90;99601.97;7747746;32;40881;-78
2023/04/17 09:09:14;;;;;;;7.85;3.45;;;;;;;19.67;37.13;99589.34;7738365;32;37852;-80
2023/04/17 09:13:38;;;;;;;8.32;3.37;;;;;;;19.62;38.07;99592.31;7730825;32;37123;-79
2023/04/17 09:17:54;;;;;;;5.45;3.25;;;;;;;20.14;37.17;99588.31;7749771;32;40003;-79
2023/04/17 09:22:21;;;;;;;6.25;3.08;;;;;;;20.23;36.23;99587.09;7763776;32;40002;-79
2023/04/17 09:26:38;;;;;;;10.40;3.22;;;;;;;20.56;35.29;99577.94;7764041;32;38005;-78
2023/04/17 09:30:55;;;;;;;7.15;3.30;;;;;;;20.33;37.21;99574.75;7743187;32;38182;-78
2023/04/17 09:35:21;;;;;;;7.40;3.22;;;;;;;21.27;34.50;99566.75;7738132;32;40132;-79
2023/04/17 09:39:39;;;;;;;5.47;3.30;;;;;;;21.21;35.39;99568.94;7735313;32;40817;-79
2023/04/17 09:44:00;;;;;;;5.22;3.28;;;;;;;20.71;36.05;99572.88;7763298;32;37878;-78
2023/04/17 09:48:17;;;;;;;8.27;3.00;;;;;;;20.54;36.62;99566.37;7748622;32;37920;-70
2023/04/17 09:52:34;;;;;;;5.80;2.87;;;;;;;21.27;36.60;99559.22;7722920;32;39306;-69
2023/04/17 09:56:54;;;;;;;4.70;2.67;;;;;;;21.09;34.57;99566.19;7749065;32;41130;-68
2023/04/17 10:01:11;;;;;;;5.50;3.30;;;;;;;21.28;34.35;99560.84;7748094;32;38682;-69
2023/04/17 10:05:30;;;;;;;5.75;3.05;;;;;;;21.15;34.50;99559.25;7741703;32;37161;-69
2023/04/17 10:09:46;;;;;;;6.55;3.22;;;;;;;21.41;34.36;99552.50;7761428;32;38984;-79
2023/04/17 10:14:14;;;;;;;5.90;3.15;;;;;;;21.64;33.25;99558.34;7756885;32;40901;-79
2023/04/17 10:18:31;;;;;;;5.40;2.90;;;;;;;21.74;33.69;99547.56;7734637;32;37935;-78
2023/04/17 10:22:55;;;;;;;5.22;2.87;;;;;;;21.25;34.16;99553.25;7760326;32;37184;-78
2023/04/17 10:27:26;;;;;;;4.60;2.95;;;;;;;21.67;33.61;99544.59;7765158;32;40080;-77
2023/04/17 10:32:07;;;;;;;6.37;2.90;;;;;;;21.50;34.50;99542.91;7766598;32;39652;-78
2023/04/17 10:36:39;;;;;;;5.10;3.00;;;;;;;21.81;33.88;99538.63;7766423;32;38838;-78
2023/04/17 10:40:55;;;;;;;5.15;2.87;;;;;;;21.81;33.95;99530.31;7766596;32;37020;-78
2023/04/17 10:45:19;;;;;;;6.93;2.80;;;;;;;21.72;32.80;99522.16;7766512;32;39036;-78
2023/04/17 10:49:54;;;;;;;5.30;2.92;;;;;;;21.90;33.84;99524.59;7761881;32;39960;-78
2023/04/17 10:54:14;;;;;;;7.95;2.78;;;;;;;21.95;32.14;99518.78;7766320;32;38747;-79
2023/04/17 10:58:30;;;;;;;4.78;3.03;;;;;;;21.94;32.15;99514.44;7754368;32;36895;-79
2023/04/17 11:02:49;;;;;;;4.87;2.87;;;;;;;21.98;33.00;99509.75;7739299;32;39374;-79
2023/04/17 11:07:06;;;;;;;9.90;3.05;;;;;;;22.49;33.15;99511.88;7739257;32;38986;-80
2023/04/17 11:11:22;;;;;;;4.60;2.85;;;;;;;22.53;31.62;99512.78;7739167;32;37913;-79
2023/04/17 11:15:58;;;;;;;4.35;2.85;;;;;;;22.76;31.88;99507.38;7739206;32;37125;-80
2023/04/17 11:20:19;;;;;;;5.22;3.15;;;;;;;23.39;32.20;99511.22;7740670;32;39609;-80
2023/04/17 11:24:35;;;;;;;4.82;2.60;;;;;;;23.78;30.55;99502.84;7747365;32;40051;-80
2023/04/17 11:28:52;;;;;;;4.10;2.95;;;;;;;23.56;30.59;99499.63;7746491;32;38471;-80
2023/04/17 11:33:08;;;;;;;6.43;2.62;;;;;;;23.70;29.22;99499.13;7747642;32;37893;-80
2023/04/17 11:37:25;;;;;;;5.65;2.67;;;;;;;24.08;28.81;99502.25;7746108;32;39943;-80
2023/04/17 11:41:43;;;;;;;7.82;2.60;;;;;;;23.85;29.57;99504.97;7737881;32;40895;-81
2023/04/17 11:46:00;;;;;;;5.68;2.83;;;;;;;22.89;30.00;99508.09;7746454;32;37262;-81
2023/04/17 11:50:18;;;;;;;5.65;2.72;;;;;;;23.06;30.34;99498.59;7733035;32;37304;-80
2023/04/17 11:54:36;;;;;;;4.60;2.60;;;;;;;22.70;30.09;99497.72;7734277;32;39989;-80
2023/04/17 11:58:56;;;;;;;7.47;2.60;;;;;;;23.05;30.15;99494.16;7765589;32;41057;-79
2023/04/17 12:03:34;;;;;;;8.52;2.67;;;;;;;23.81;29.62;99482.66;7765495;32;37822;-80
2023/04/17 12:08:04;;;;;;;6.28;2.60;;;;;;;24.31;29.04;99472.41;7765520;32;37118;-80
2023/04/17 12:12:21;;;;;;;3.90;2.40;;;;;;;24.72;28.53;99475.47;7765407;32;39427;-79
2023/04/17 12:16:37;;;;;;;4.62;2.62;;;;;;;25.53;27.90;99483.75;7765473;32;40851;-80
2023/04/17 12:20:53;;;;;;;7.62;2.80;;;;;;;25.88;25.81;99486.12;7749669;32;37849;-80
2023/04/17 12:25:10;;;;;;;4.18;2.45;;;;;;;25.92;26.14;99466.63;7738074;32;37138;-80
2023/04/17 12:29:26;;;;;;;6.03;2.20;;;;;;;26.73;25.49;99456.56;7738436;32;39567;-81
2023/04/17 12:33:58;;;;;;;5.60;2.23;;;;;;;27.42;24.54;99461.34;7738206;32;39918;-80
2023/04/17 12:38:14;;;;;;;4.47;1.90;;;;;;;26.97;22.42;99457.91;7738005;32;38596;-80
2023/04/17 12:42:31;;;;;;;3.30;2.15;;;;;;;26.53;24.70;99462.41;7724306;32;36911;-80
2023/04/17 12:46:57;;;;;;;3.53;2.00;;;;;;;26.24;24.81;99458.56;7738147;32;39349;-79
2023/04/17 12:51:13;;;;;;;7.90;2.40;;;;;;;25.39;25.28;99459.25;7737490;32;39890;-69
2023/04/17 12:55:31;;;;;;;3.40;2.37;;;;;;;25.30;25.62;99453.97;7737881;32;38019;-71
2023/04/17 12:59:48;;;;;;;2.40;1.77;;;;;;;24.84;27.24;99454.16;7737869;32;37163;-70
2023/04/17 13:04:05;;;;;;;4.07;2.03;;;;;;;24.92;26.03;99439.94;7737767;32;39445;-79
2023/04/17 13:08:21;;;;;;;3.25;2.15;;;;;;;24.49;27.53;99444.84;7737567;32;39988;-79
2023/04/17 13:12:40;;;;;;;5.10;2.05;;;;;;;25.01;27.43;99436.84;7737549;32;39626;-79
2023/04/17 13:16:57;;;;;;;3.37;2.17;;;;;;;24.77;27.96;99432.53;7748597;32;37145;-80
2023/04/17 13:21:13;;;;;;;5.32;2.12;;;;;;;24.65;27.09;99428.00;7751826;32;40141;-80
2023/04/17 13:25:30;;;;;;;4.03;2.22;;;;;;;24.51;27.97;99436.13;7737371;32;40745;-79
2023/04/17 13:29:46;;;;;;;4.50;2.60;;;;;;;24.34;27.48;99427.09;7737305;32;37781;-79
2023/04/17 13:34:03;;;;;;;3.08;2.17;;;;;;;24.27;28.20;99424.19;7737159;32;37971;-79
2023/04/17 13:38:19;;;;;;;6.75;2.67;;;;;;;24.11;28.97;99413.19;7737168;32;39518;-78
2023/04/17 13:42:36;;;;;;;3.58;2.00;;;;;;;24.35;27.88;99406.44;7736932;32;39963;-77
2023/04/17 13:46:53;;;;;;;3.80;2.35;;;;;;;24.20;27.75;99407.37;7736973;32;38889;-79
2023/04/17 13:51:10;;;;;;;3.37;1.98;;;;;;;24.65;30.15;99391.75;7742829;32;37823;-79
2023/04/17 13:55:26;;;;;;;3.72;2.20;;;;;;;24.64;26.77;99387.34;7754115;32;40502;-77
2023/04/17 13:59:43;;;;;;;3.40;2.08;;;;;;;24.28;26.34;99395.16;7747378;32;40594;-77
2023/04/17 14:03:59;;;;;;;5.12;2.80;;;;;;;24.07;27.14;99395.62;7739770;32;37851;-79
2023/04/17 14:08:16;;;;;;;4.15;2.72;;;;;;;23.02;29.61;99415.06;7744746;32;37137;-77
2023/04/17 14:12:32;;;;;;;5.28;3.12;;;;;;;22.18;32.22;99426.59;7749666;32;39456;-77
2023/04/17 14:16:49;;;;;;;6.57;2.92;;;;;;;21.49;34.11;99435.09;7751056;32;41281;-77
2023/04/17 14:21:06;;;;;;;5.20;3.00;;;;;;;21.44;34.80;99438.09;7750531;32;38687;-78
2023/04/17 14:25:22;;;;;;;5.95;3.12;;;;;;;21.11;35.41;99444.69;7747938;32;37129;-78
2023/04/17 14:29:38;;;;;;;5.45;3.50;;;;;;;20.54;36.33;99447.31;7743550;32;39791;-79
2023/04/17 14:33:55;;;;;;;7.68;3.50;;;;;;;20.02;37.58;99456.28;7751066;32;39780;-77
2023/04/17 14:38:11;;;;;;;6.57;3.50;;;;;;;20.14;36.97;99459.06;7752199;32;38725;-78
2023/04/17 14:42:27;;;;;;;7.15;3.45;;;;;;;20.06;38.00;99448.91;7737930;32;35729;-78
2023/04/17 14:46:43;;;;;;;6.47;3.22;;;;;;;20.13;38.13;99456.62;7748111;32;39241;-78
2023/04/17 14:51:00;;;;;;;6.32;2.80;;;;;;;20.00;39.04;99461.34;7751699;32;39989;-78
2023/04/17 14:55:16;;;;;;;6.18;3.30;;;;;;;20.06;39.38;99457.22;7750707;32;37585;-78
2023/04/17 14:59:32;;;;;;;7.45;3.65;;;;;;;20.28;38.84;99455.94;7738691;32;37598;-78
2023/04/17 15:03:49;;;;;;;6.32;3.40;;;;;;;20.08;39.17;99463.22;7728866;32;39421;-78
2023/04/17 15:08:06;;;;;;;6.85;3.45;;;;;;;20.19;38.90;99458.03;7739075;32;40147;-77
2023/04/17 15:12:22;;;;;;;7.05;3.55;;;;;;;20.20;38.99;99452.16;7739108;32;38649;-78
2023/04/17 15:16:38;;;;;;;7.35;3.65;;;;;;;20.13;38.90;99451.91;7739203;32;36708;-68
2023/04/17 15:20:55;;;;;;;9.23;3.20;;;;;;;19.58;42.50;99453.16;7755006;32;39465;-78
2023/04/17 15:25:11;;;;;;;6.62;3.08;;;;;;;19.58;41.91;99450.38;7756298;32;40122;-78
2023/04/17 15:29:27;;;;;;;7.10;3.00;;;;;;;19.48;42.36;99452.41;7739062;32;37937;-78
2023/04/17 15:33:46;;;;;;;6.87;2.97;;;;;;;19.77;42.04;99444.37;7747382;32;37820;-70
2023/04/17 15:38:02;;;;;;;4.70;2.60;;;;;;;19.80;42.27;99450.03;7765495;32;38441;-70
2023/04/17 15:42:18;;;;;;;6.57;2.70;;;;;;;19.68;43.06;99455.50;7765368;32;39607;-68
2023/04/17 15:46:35;;;;;;;7.15;3.03;;;;;;;19.71;42.89;99457.56;7764997;32;38428;-78
2023/04/17 15:50:51;;;;;;;6.05;2.70;;;;;;;19.62;43.93;99454.06;7751650;32;37795;-79
2023/04/17 15:55:08;;;;;;;5.00;2.95;;;;;;;19.51;42.12;99460.03;7762138;32;40070;-78
2023/04/17 15:59:25;;;;;;;3.65;2.22;;;;;;;19.56;40.75;99460.94;7758098;32;40063;-78
2023/04/17 16:03:42;;;;;;;4.45;2.50;;;;;;;19.67;41.13;99454.66;7763918;32;37955;-77
2023/04/17 16:08:00;;;;;;;7.00;2.92;;;;;;;19.81;39.99;99454.38;7764997;32;36762;-78
2023/04/17 16:12:16;;;;;;;6.30;4.10;;;;;;;19.65;40.94;99450.63;7764753;32;40029;-79
2023/04/17 16:16:33;;;;;;;5.55;3.42;;;;;;;19.77;39.35;99459.00;7764921;32;40698;-79
2023/04/17 16:20:49;;;;;;;4.62;3.12;;;;;;;19.76;39.21;99451.03;7750857;32;38627;-79
2023/04/17 16:25:07;;;;;;;6.32;2.72;;;;;;;19.61;39.28;99449.69;7764272;32;36955;-79
2023/04/17 16:29:24;;;;;;;4.20;2.53;;;;;;;19.47;39.55;99461.88;7764819;32;39247;-78
2023/04/17 16:33:41;;;;;;;5.10;2.53;;;;;;;19.41;39.66;99463.22;7764572;32;40629;-79
2023/04/17 16:37:57;;;;;;;5.60;2.42;;;;;;;19.32;40.43;99459.72;7750749;32;38010;-79
2023/04/17 16:42:14;;;;;;;5.50;2.55;;;;;;;19.34;39.48;99454.66;7764427;32;37215;-78
2023/04/17 16:46:30;;;;;;;4.28;2.62;;;;;;;19.26;40.05;99464.62;7764586;32;39279;-78
2023/04/17 16:51:06;;;;;;;7.00;2.60;;;;;;;19.19;39.75;99466.31;7763382;32;40006;-79
2023/04/17 16:55:23;;;;;;;4.43;2.60;;;;;;;19.12;40.38;99466.87;7764441;32;38150;-79
2023/04/17 16:59:39;;;;;;;5.00;2.45;;;;;;;19.08;40.75;99471.47;7764395;32;37900;-78
2023/04/17 17:03:56;;;;;;;3.87;2.50;;;;;;;19.06;40.85;99457.19;7742979;32;39434;-79
2023/04/17 17:08:13;;;;;;;5.10;2.67;;;;;;;19.11;40.42;99465.28;7723680;32;40562;-79
2023/04/17 17:12:29;;;;;;;3.70;2.55;;;;;;;19.12;40.18;99462.13;7737140;32;37919;-78
2023/04/17 17:16:46;;;;;;;5.95;2.78;;;;;;;18.88;40.85;99464.75;7737153;32;37153;-79
2023/04/17 17:21:03;;;;;;;5.43;2.60;;;;;;;18.76;41.26;99468.22;7737039;32;39974;-78
2023/04/17 17:25:20;;;;;;;4.57;2.80;;;;;;;18.58;42.05;99473.03;7736808;32;40195;-79
2023/04/17 17:29:36;;;;;;;4.68;2.60;;;;;;;18.57;41.96;99480.53;7736828;32;37943;-78
2023/04/17 17:33:54;;;;;;;4.30;2.55;;;;;;;18.45;41.78;99471.31;7736613;32;37818;-79
2023/04/17 17:38:10;;;;;;;4.22;2.75;;;;;;;18.61;41.90;99477.06;7735468;32;39404;-79
2023/04/17 17:42:27;;;;;;;4.93;2.80;;;;;;;18.35;41.95;99478.84;7736428;32;40041;-77
2023/04/17 17:46:43;;;;;;;5.43;2.78;;;;;;;18.28;42.45;99484.06;7736166;32;38421;-78
2023/04/17 17:50:59;;;;;;;4.65;2.53;;;;;;;18.18;42.65;99474.19;7735891;32;37050;-78
2023/04/17 17:55:16;;;;;;;3.42;2.28;;;;;;;18.14;42.65;99486.22;7736197;32;39408;-78
2023/04/17 17:59:32;;;;;;;4.22;2.35;;;;;;;17.85;42.96;99490.50;7727972;32;40801;-70
2023/04/17 18:03:49;;;;;;;4.12;2.30;;;;;;;17.97;42.54;99498.94;7708335;32;37674;-77
2023/04/17 18:08:05;;;;;;;3.75;2.37;;;;;;;17.90;43.09;99501.38;7709369;32;36993;-77
2023/04/17 18:12:21;;;;;;;4.57;2.70;;;;;;;17.77;43.04;99503.16;7709453;32;39257;-77
2023/04/17 18:16:38;;;;;;;3.55;2.40;;;;;;;17.60;43.66;99519.72;7709281;32;39972;-75
2023/04/17 18:20:54;;;;;;;4.85;2.53;;;;;;;17.65;43.19;99516.78;7709175;32;37876;-77
2023/04/17 18:25:11;;;;;;;7.10;2.35;;;;;;;17.82;42.90;99515.97;7709076;32;37645;-77
2023/04/17 18:29:27;;;;;;;2.85;2.20;;;;;;;17.48;43.71;99527.84;7712984;32;40010;-76
2023/04/17 18:33:44;;;;;;;4.12;2.40;;;;;;;17.53;43.74;99525.72;7720385;32;40039;-75
2023/04/17 18:38:00;;;;;;;4.30;2.50;;;;;;;17.38;43.91;99526.19;7726014;32;38088;-76
2023/04/17 18:42:16;;;;;;;4.85;2.72;;;;;;;17.45;43.67;99532.03;7725374;32;35216;-77
2023/04/17 18:46:32;;;;;;;5.25;2.50;;;;;;;17.32;44.10;99538.53;7720500;32;38972;-77
2023/04/17 18:50:49;;;;;;;5.25;3.03;;;;;;;17.39;43.81;99538.84;7723945;32;40160;-75
2023/04/17 18:55:06;;;;;;;4.85;2.72;;;;;;;17.35;44.09;99537.84;7712049;32;38818;-77
2023/04/17 18:59:24;;;;;;;4.40;2.60;;;;;;;17.06;44.70;99547.56;7726347;32;37877;-77
2023/04/17 19:03:41;;;;;;;4.43;2.75;;;;;;;17.32;44.40;99546.78;7722693;32;39381;-77
2023/04/17 19:07:57;;;;;;;3.70;2.30;;;;;;;17.34;44.75;99552.78;7718110;32;40002;-76
2023/04/17 19:12:14;;;;;;;5.60;2.75;;;;;;;17.21;44.61;99549.84;7725839;32;37866;-77
2023/04/17 19:16:30;;;;;;;8.20;2.80;;;;;;;17.02;45.16;99560.34;7721188;32;37301;-76
2023/04/17 19:20:46;;;;;;;5.50;2.80;;;;;;;16.97;45.49;99571.50;7725805;32;39355;-76
2023/04/17 19:25:03;;;;;;;6.72;3.08;;;;;;;17.06;44.78;99564.88;7725398;32;41021;-76
2023/04/17 19:29:19;;;;;;;4.65;2.95;;;;;;;17.17;44.20;99557.13;7728572;32;37866;-77
2023/04/17 19:33:36;;;;;;;5.75;3.20;;;;;;;17.03;44.66;99556.47;7723754;32;37019;-78
2023/04/17 19:37:52;;;;;;;8.05;3.00;;;;;;;16.96;44.90;99561.63;7722247;32;39491;-77
2023/04/17 19:42:08;;;;;;;5.70;3.10;;;;;;;16.79;45.54;99554.09;7722976;32;39874;-76
2023/04/17 19:46:26;;;;;;;4.37;2.60;;;;;;;16.93;45.07;99556.75;7735767;32;37648;-78
2023/04/17 19:50:42;;;;;;;9.13;4.07;;;;;;;16.78;45.42;99556.03;7711866;32;37781;-76
2023/04/17 19:54:58;;;;;;;8.30;3.92;;;;;;;16.75;45.56;99550.34;7732986;32;40003;-78
2023/04/17 19:59:15;;;;;;;9.23;3.90;;;;;;;16.86;45.14;99547.00;7711124;32;40697;-83
2023/04/17 20:03:31;;;;;;;7.50;4.20;;;;;;;16.77;45.49;99546.16;7712454;32;38066;-78
2023/04/17 20:07:48;;;;;;;9.65;4.30;;;;;;;16.68;45.90;99545.31;7711782;32;37090;-78
2023/04/17 20:12:04;;;;;;;6.70;3.80;;;;;;;16.79;45.90;99548.59;7711824;32;39295;-78